sensor_id;sensor_type;location;lat;lon;timestamp;P1;durP1;ratioP1;P2;durP2;ratioP2
47153;SDS011;32907;41.412;2.164;2024-03-23T00:55:12;6.43;;;2.90;;
47153;SDS011;32907;41.412;2.164;2024-03-23T00:57:39;7.18;;;2.90;;
47153;SDS011;32907;41.412;2.164;2024-03-23T01:00:06;7.80;;;3.00;;
47153;SDS011;32907;41.412;2.164;2024-03-23T01:02:36;7.80;;;3.20;;
47153;SDS011;32907;41.412;2.164;2024-03-23T01:05:03;7.97;;;2.50;;
47153;SDS011;32907;41.412;2.164;2024-03-23T01:07:31;5.60;;;2.80;;
47153;SDS011;32907;41.412;2.164;2024-03-23T01:09:58;9.55;;;3.10;;
47153;SDS011;32907;41.412;2.164;2024-03-23T01:12:25;8.20;;;2.88;;
47153;SDS011;32907;41.412;2.164;2024-03-23T01:14:52;6.00;;;2.90;;
47153;SDS011;32907;41.412;2.164;2024-03-23T01:17:19;7.10;;;2.83;;
47153;SDS011;32907;41.412;2.164;2024-03-23T01:19:46;7.32;;;2.70;;
47153;SDS011;32907;41.412;2.164;2024-03-23T01:22:13;5.93;;;2.80;;
47153;SDS011;32907;41.412;2.164;2024-03-23T01:24:40;9.77;;;3.25;;
47153;SDS011;32907;41.412;2.164;2024-03-23T01:27:08;6.88;;;3.60;;
47153;SDS011;32907;41.412;2.164;2024-03-23T01:29:35;9.77;;;3.25;;
47153;SDS011;32907;41.412;2.164;2024-03-23T01:32:02;7.75;;;2.70;;
47153;SDS011;32907;41.412;2.164;2024-03-23T01:34:29;6.45;;;2.85;;
47153;SDS011;32907;41.412;2.164;2024-03-23T01:36:56;8.52;;;3.30;;
47153;SDS011;32907;41.412;2.164;2024-03-23T01:39:23;6.20;;;2.80;;
47153;SDS011;32907;41.412;2.164;2024-03-23T01:41:50;6.60;;;2.97;;
47153;SDS011;32907;41.412;2.164;2024-03-23T01:44:17;7.95;;;2.60;;
47153;SDS011;32907;41.412;2.164;2024-03-23T01:46:44;9.57;;;2.80;;
47153;SDS011;32907;41.412;2.164;2024-03-23T01:49:11;9.23;;;3.10;;
47153;SDS011;32907;41.412;2.164;2024-03-23T01:51:39;7.38;;;2.85;;
47153;SDS011;32907;41.412;2.164;2024-03-23T01:54:06;6.03;;;2.78;;
47153;SDS011;32907;41.412;2.164;2024-03-23T01:56:34;8.63;;;2.88;;
47153;SDS011;32907;41.412;2.164;2024-03-23T01:59:05;11.23;;;2.92;;
47153;SDS011;32907;41.412;2.164;2024-03-23T02:01:32;5.90;;;2.90;;
47153;SDS011;32907;41.412;2.164;2024-03-23T02:04:02;6.88;;;2.80;;
47153;SDS011;32907;41.412;2.164;2024-03-23T02:06:29;5.50;;;2.88;;
47153;SDS011;32907;41.412;2.164;2024-03-23T02:08:57;6.38;;;2.90;;
47153;SDS011;32907;41.412;2.164;2024-03-23T02:11:24;7.03;;;3.20;;
47153;SDS011;32907;41.412;2.164;2024-03-23T02:13:51;6.10;;;2.63;;
47153;SDS011;32907;41.412;2.164;2024-03-23T02:16:18;7.20;;;2.97;;
47153;SDS011;32907;41.412;2.164;2024-03-23T02:18:45;7.95;;;3.40;;
47153;SDS011;32907;41.412;2.164;2024-03-23T02:21:12;8.45;;;2.95;;
47153;SDS011;32907;41.412;2.164;2024-03-23T02:23:39;4.93;;;2.70;;
47153;SDS011;32907;41.412;2.164;2024-03-23T02:26:06;7.18;;;2.75;;
47153;SDS011;32907;41.412;2.164;2024-03-23T02:28:33;6.20;;;2.83;;
47153;SDS011;32907;41.412;2.164;2024-03-23T02:31:00;5.95;;;2.97;;
47153;SDS011;32907;41.412;2.164;2024-03-23T02:33:27;7.72;;;2.60;;
47153;SDS011;32907;41.412;2.164;2024-03-23T02:35:58;10.52;;;3.10;;
47153;SDS011;32907;41.412;2.164;2024-03-23T02:38:24;6.90;;;3.30;;
47153;SDS011;32907;41.412;2.164;2024-03-23T02:40:51;7.82;;;2.70;;
47153;SDS011;32907;41.412;2.164;2024-03-23T02:43:19;8.48;;;3.15;;
47153;SDS011;32907;41.412;2.164;2024-03-23T02:45:46;7.35;;;3.00;;
47153;SDS011;32907;41.412;2.164;2024-03-23T02:48:13;7.78;;;2.67;;
47153;SDS011;32907;41.412;2.164;2024-03-23T02:50:40;7.63;;;3.42;;
47153;SDS011;32907;41.412;2.164;2024-03-23T02:53:07;9.98;;;2.80;;
47153;SDS011;32907;41.412;2.164;2024-03-23T02:55:34;9.80;;;3.58;;
47153;SDS011;32907;41.412;2.164;2024-03-23T02:58:02;8.98;;;3.10;;
47153;SDS011;32907;41.412;2.164;2024-03-23T03:00:29;15.85;;;3.30;;
47153;SDS011;32907;41.412;2.164;2024-03-23T03:02:57;8.48;;;3.78;;
47153;SDS011;32907;41.412;2.164;2024-03-23T03:05:24;7.07;;;3.40;;
47153;SDS011;32907;41.412;2.164;2024-03-23T03:07:51;9.65;;;3.63;;
47153;SDS011;32907;41.412;2.164;2024-03-23T03:10:18;9.50;;;3.33;;
47153;SDS011;32907;41.412;2.164;2024-03-23T03:12:45;7.15;;;3.20;;
47153;SDS011;32907;41.412;2.164;2024-03-23T03:15:12;8.18;;;3.40;;
47153;SDS011;32907;41.412;2.164;2024-03-23T03:17:39;8.70;;;3.42;;
47153;SDS011;32907;41.412;2.164;2024-03-23T03:20:07;9.18;;;3.42;;
47153;SDS011;32907;41.412;2.164;2024-03-23T03:22:39;8.25;;;3.85;;
47153;SDS011;32907;41.412;2.164;2024-03-23T03:25:06;8.20;;;3.53;;
47153;SDS011;32907;41.412;2.164;2024-03-23T03:27:33;8.98;;;3.53;;
47153;SDS011;32907;41.412;2.164;2024-03-23T03:30:01;7.97;;;3.45;;
47153;SDS011;32907;41.412;2.164;2024-03-23T03:32:29;10.23;;;3.75;;
47153;SDS011;32907;41.412;2.164;2024-03-23T03:34:57;7.05;;;3.50;;
47153;SDS011;32907;41.412;2.164;2024-03-23T03:37:24;6.38;;;3.28;;
47153;SDS011;32907;41.412;2.164;2024-03-23T03:39:51;7.05;;;3.67;;
47153;SDS011;32907;41.412;2.164;2024-03-23T03:42:18;10.27;;;4.97;;
47153;SDS011;32907;41.412;2.164;2024-03-23T03:44:45;7.68;;;5.05;;
47153;SDS011;32907;41.412;2.164;2024-03-23T03:47:12;12.38;;;5.32;;
47153;SDS011;32907;41.412;2.164;2024-03-23T03:49:39;12.05;;;5.40;;
47153;SDS011;32907;41.412;2.164;2024-03-23T03:52:06;9.07;;;4.97;;
47153;SDS011;32907;41.412;2.164;2024-03-23T03:54:33;12.40;;;8.85;;
47153;SDS011;32907;41.412;2.164;2024-03-23T03:57:00;12.10;;;9.10;;
47153;SDS011;32907;41.412;2.164;2024-03-23T03:59:27;13.13;;;8.85;;
47153;SDS011;32907;41.412;2.164;2024-03-23T04:01:54;13.60;;;8.77;;
47153;SDS011;32907;41.412;2.164;2024-03-23T04:04:21;14.63;;;8.18;;
47153;SDS011;32907;41.412;2.164;2024-03-23T04:06:48;11.57;;;8.13;;
47153;SDS011;32907;41.412;2.164;2024-03-23T04:09:16;13.65;;;8.27;;
47153;SDS011;32907;41.412;2.164;2024-03-23T04:11:43;13.05;;;9.25;;
47153;SDS011;32907;41.412;2.164;2024-03-23T04:14:10;13.38;;;9.65;;
47153;SDS011;32907;41.412;2.164;2024-03-23T04:16:38;14.55;;;10.32;;
47153;SDS011;32907;41.412;2.164;2024-03-23T04:19:05;14.88;;;10.63;;
47153;SDS011;32907;41.412;2.164;2024-03-23T04:21:32;15.60;;;10.93;;
47153;SDS011;32907;41.412;2.164;2024-03-23T04:23:59;15.80;;;10.18;;
47153;SDS011;32907;41.412;2.164;2024-03-23T04:26:26;12.40;;;9.52;;
47153;SDS011;32907;41.412;2.164;2024-03-23T04:28:53;14.63;;;8.80;;
47153;SDS011;32907;41.412;2.164;2024-03-23T04:31:21;10.73;;;8.15;;
47153;SDS011;32907;41.412;2.164;2024-03-23T04:33:48;13.07;;;8.43;;
47153;SDS011;32907;41.412;2.164;2024-03-23T04:36:15;12.35;;;8.98;;
47153;SDS011;32907;41.412;2.164;2024-03-23T04:38:42;13.35;;;7.88;;
47153;SDS011;32907;41.412;2.164;2024-03-23T04:41:09;11.90;;;7.38;;
47153;SDS011;32907;41.412;2.164;2024-03-23T04:43:36;14.98;;;7.35;;
47153;SDS011;32907;41.412;2.164;2024-03-23T04:46:03;11.32;;;6.90;;
47153;SDS011;32907;41.412;2.164;2024-03-23T04:48:30;15.50;;;6.88;;
47153;SDS011;32907;41.412;2.164;2024-03-23T04:50:57;13.65;;;6.43;;
47153;SDS011;32907;41.412;2.164;2024-03-23T04:53:24;14.07;;;6.80;;
47153;SDS011;32907;41.412;2.164;2024-03-23T04:55:58;11.50;;;8.10;;
47153;SDS011;32907;41.412;2.164;2024-03-23T04:58:25;15.15;;;8.55;;
47153;SDS011;32907;41.412;2.164;2024-03-23T05:00:53;15.65;;;8.35;;
47153;SDS011;32907;41.412;2.164;2024-03-23T05:03:23;12.73;;;8.05;;
47153;SDS011;32907;41.412;2.164;2024-03-23T05:05:51;21.00;;;11.60;;
47153;SDS011;32907;41.412;2.164;2024-03-23T05:08:18;19.45;;;10.93;;
47153;SDS011;32907;41.412;2.164;2024-03-23T05:10:45;15.90;;;9.88;;
47153;SDS011;32907;41.412;2.164;2024-03-23T05:13:12;12.77;;;8.85;;
47153;SDS011;32907;41.412;2.164;2024-03-23T05:15:39;16.13;;;9.40;;
47153;SDS011;32907;41.412;2.164;2024-03-23T05:18:06;16.40;;;9.88;;
47153;SDS011;32907;41.412;2.164;2024-03-23T05:20:33;19.25;;;11.10;;
47153;SDS011;32907;41.412;2.164;2024-03-23T05:23:00;15.40;;;9.82;;
47153;SDS011;32907;41.412;2.164;2024-03-23T05:25:27;17.48;;;9.52;;
47153;SDS011;32907;41.412;2.164;2024-03-23T05:27:54;12.70;;;8.20;;
47153;SDS011;32907;41.412;2.164;2024-03-23T05:30:21;13.15;;;8.10;;
47153;SDS011;32907;41.412;2.164;2024-03-23T05:32:49;11.82;;;6.75;;
47153;SDS011;32907;41.412;2.164;2024-03-23T05:35:16;14.20;;;6.45;;
47153;SDS011;32907;41.412;2.164;2024-03-23T05:37:43;11.07;;;5.97;;
47153;SDS011;32907;41.412;2.164;2024-03-23T05:40:11;11.70;;;5.68;;
47153;SDS011;32907;41.412;2.164;2024-03-23T05:42:40;11.00;;;5.22;;
47153;SDS011;32907;41.412;2.164;2024-03-23T05:45:07;10.88;;;4.97;;
47153;SDS011;32907;41.412;2.164;2024-03-23T05:47:34;9.63;;;5.13;;
47153;SDS011;32907;41.412;2.164;2024-03-23T05:50:02;11.30;;;5.40;;
47153;SDS011;32907;41.412;2.164;2024-03-23T05:52:29;15.20;;;5.07;;
47153;SDS011;32907;41.412;2.164;2024-03-23T05:54:56;11.27;;;5.00;;
47153;SDS011;32907;41.412;2.164;2024-03-23T05:57:25;9.93;;;5.43;;
47153;SDS011;32907;41.412;2.164;2024-03-23T05:59:52;12.00;;;5.55;;
47153;SDS011;32907;41.412;2.164;2024-03-23T06:02:19;12.35;;;5.50;;
47153;SDS011;32907;41.412;2.164;2024-03-23T06:04:46;10.98;;;5.10;;
47153;SDS011;32907;41.412;2.164;2024-03-23T06:07:13;9.80;;;5.28;;
47153;SDS011;32907;41.412;2.164;2024-03-23T06:09:41;8.27;;;4.60;;
47153;SDS011;32907;41.412;2.164;2024-03-23T06:12:09;7.70;;;4.78;;
47153;SDS011;32907;41.412;2.164;2024-03-23T06:14:36;11.98;;;5.07;;
47153;SDS011;32907;41.412;2.164;2024-03-23T06:17:03;9.32;;;5.63;;
47153;SDS011;32907;41.412;2.164;2024-03-23T06:19:30;11.45;;;6.50;;
47153;SDS011;32907;41.412;2.164;2024-03-23T06:21:57;18.27;;;6.97;;
47153;SDS011;32907;41.412;2.164;2024-03-23T06:24:24;15.93;;;8.80;;
47153;SDS011;32907;41.412;2.164;2024-03-23T06:26:52;15.57;;;8.68;;
47153;SDS011;32907;41.412;2.164;2024-03-23T06:29:20;13.15;;;7.93;;
47153;SDS011;32907;41.412;2.164;2024-03-23T06:31:52;14.38;;;7.28;;
47153;SDS011;32907;41.412;2.164;2024-03-23T06:34:21;14.45;;;7.47;;
47153;SDS011;32907;41.412;2.164;2024-03-23T06:36:49;16.58;;;7.78;;
47153;SDS011;32907;41.412;2.164;2024-03-23T06:39:16;13.52;;;8.43;;
47153;SDS011;32907;41.412;2.164;2024-03-23T06:41:52;15.82;;;9.10;;
47153;SDS011;32907;41.412;2.164;2024-03-23T06:44:20;19.60;;;9.88;;
47153;SDS011;32907;41.412;2.164;2024-03-23T06:46:47;16.25;;;10.00;;
47153;SDS011;32907;41.412;2.164;2024-03-23T06:49:16;16.10;;;9.52;;
47153;SDS011;32907;41.412;2.164;2024-03-23T06:51:43;17.33;;;9.60;;
47153;SDS011;32907;41.412;2.164;2024-03-23T06:54:11;18.00;;;10.35;;
47153;SDS011;32907;41.412;2.164;2024-03-23T06:56:38;18.50;;;11.93;;
47153;SDS011;32907;41.412;2.164;2024-03-23T06:59:06;19.70;;;12.75;;
47153;SDS011;32907;41.412;2.164;2024-03-23T07:01:34;23.15;;;12.23;;
47153;SDS011;32907;41.412;2.164;2024-03-23T07:04:01;19.33;;;11.25;;
47153;SDS011;32907;41.412;2.164;2024-03-23T07:06:30;18.67;;;10.32;;
47153;SDS011;32907;41.412;2.164;2024-03-23T07:08:58;15.40;;;9.88;;
47153;SDS011;32907;41.412;2.164;2024-03-23T07:11:25;13.57;;;9.40;;
47153;SDS011;32907;41.412;2.164;2024-03-23T07:13:53;14.32;;;9.18;;
47153;SDS011;32907;41.412;2.164;2024-03-23T07:16:21;22.10;;;13.32;;
47153;SDS011;32907;41.412;2.164;2024-03-23T07:18:50;17.75;;;12.45;;
47153;SDS011;32907;41.412;2.164;2024-03-23T07:21:17;17.00;;;12.23;;
47153;SDS011;32907;41.412;2.164;2024-03-23T07:23:44;18.13;;;10.73;;
47153;SDS011;32907;41.412;2.164;2024-03-23T07:26:11;13.68;;;9.00;;
47153;SDS011;32907;41.412;2.164;2024-03-23T07:28:39;16.75;;;9.60;;
47153;SDS011;32907;41.412;2.164;2024-03-23T07:31:11;17.33;;;10.27;;
47153;SDS011;32907;41.412;2.164;2024-03-23T07:33:43;26.77;;;15.00;;
47153;SDS011;32907;41.412;2.164;2024-03-23T07:36:15;16.80;;;12.57;;
47153;SDS011;32907;41.412;2.164;2024-03-23T07:38:45;17.90;;;12.07;;
47153;SDS011;32907;41.412;2.164;2024-03-23T07:41:15;18.17;;;10.10;;
47153;SDS011;32907;41.412;2.164;2024-03-23T07:43:45;17.40;;;9.45;;
47153;SDS011;32907;41.412;2.164;2024-03-23T07:46:14;14.00;;;8.20;;
47153;SDS011;32907;41.412;2.164;2024-03-23T07:48:42;13.02;;;7.13;;
47153;SDS011;32907;41.412;2.164;2024-03-23T07:51:10;12.00;;;6.75;;
47153;SDS011;32907;41.412;2.164;2024-03-23T07:53:38;10.95;;;6.90;;
47153;SDS011;32907;41.412;2.164;2024-03-23T07:56:08;13.55;;;6.97;;
47153;SDS011;32907;41.412;2.164;2024-03-23T07:58:39;13.32;;;6.68;;
47153;SDS011;32907;41.412;2.164;2024-03-23T08:01:07;14.70;;;9.20;;
47153;SDS011;32907;41.412;2.164;2024-03-23T08:03:49;16.38;;;11.98;;
47153;SDS011;32907;41.412;2.164;2024-03-23T08:06:17;17.83;;;11.27;;
47153;SDS011;32907;41.412;2.164;2024-03-23T08:08:52;19.38;;;11.02;;
47153;SDS011;32907;41.412;2.164;2024-03-23T08:11:29;19.48;;;10.85;;
47153;SDS011;32907;41.412;2.164;2024-03-23T08:13:57;20.00;;;11.75;;
47153;SDS011;32907;41.412;2.164;2024-03-23T08:16:25;14.68;;;10.60;;
47153;SDS011;32907;41.412;2.164;2024-03-23T08:18:52;16.05;;;9.63;;
47153;SDS011;32907;41.412;2.164;2024-03-23T08:21:19;17.00;;;10.05;;
47153;SDS011;32907;41.412;2.164;2024-03-23T08:23:46;14.90;;;8.90;;
47153;SDS011;32907;41.412;2.164;2024-03-23T08:26:15;14.10;;;8.50;;
47153;SDS011;32907;41.412;2.164;2024-03-23T08:28:44;17.67;;;9.10;;
47153;SDS011;32907;41.412;2.164;2024-03-23T08:31:11;14.63;;;8.07;;
47153;SDS011;32907;41.412;2.164;2024-03-23T08:33:39;16.40;;;8.10;;
47153;SDS011;32907;41.412;2.164;2024-03-23T08:36:09;13.05;;;8.10;;
47153;SDS011;32907;41.412;2.164;2024-03-23T08:38:40;12.40;;;7.40;;
47153;SDS011;32907;41.412;2.164;2024-03-23T08:41:08;13.35;;;8.40;;
47153;SDS011;32907;41.412;2.164;2024-03-23T08:43:37;14.73;;;8.32;;
47153;SDS011;32907;41.412;2.164;2024-03-23T08:46:15;11.75;;;8.05;;
47153;SDS011;32907;41.412;2.164;2024-03-23T08:48:43;16.42;;;7.28;;
47153;SDS011;32907;41.412;2.164;2024-03-23T08:51:15;17.45;;;7.60;;
47153;SDS011;32907;41.412;2.164;2024-03-23T08:53:43;13.52;;;6.88;;
47153;SDS011;32907;41.412;2.164;2024-03-23T08:56:10;15.15;;;8.05;;
47153;SDS011;32907;41.412;2.164;2024-03-23T08:58:38;18.05;;;9.10;;
47153;SDS011;32907;41.412;2.164;2024-03-23T09:01:09;19.90;;;10.63;;
47153;SDS011;32907;41.412;2.164;2024-03-23T09:03:37;15.13;;;9.63;;
47153;SDS011;32907;41.412;2.164;2024-03-23T09:06:07;14.05;;;8.65;;
47153;SDS011;32907;41.412;2.164;2024-03-23T09:08:35;13.70;;;7.63;;
47153;SDS011;32907;41.412;2.164;2024-03-23T09:11:03;13.93;;;7.30;;
47153;SDS011;32907;41.412;2.164;2024-03-23T09:13:35;11.02;;;6.35;;
47153;SDS011;32907;41.412;2.164;2024-03-23T09:16:02;13.45;;;5.90;;
47153;SDS011;32907;41.412;2.164;2024-03-23T09:18:33;18.23;;;6.25;;
47153;SDS011;32907;41.412;2.164;2024-03-23T09:21:02;16.13;;;7.30;;
47153;SDS011;32907;41.412;2.164;2024-03-23T09:23:30;22.48;;;7.93;;
47153;SDS011;32907;41.412;2.164;2024-03-23T09:25:57;19.55;;;7.32;;
47153;SDS011;32907;41.412;2.164;2024-03-23T09:28:29;24.33;;;7.47;;
47153;SDS011;32907;41.412;2.164;2024-03-23T09:31:03;17.58;;;6.90;;
47153;SDS011;32907;41.412;2.164;2024-03-23T09:33:31;16.63;;;7.07;;
47153;SDS011;32907;41.412;2.164;2024-03-23T09:35:58;14.70;;;6.72;;
47153;SDS011;32907;41.412;2.164;2024-03-23T09:38:30;19.35;;;6.75;;
47153;SDS011;32907;41.412;2.164;2024-03-23T09:40:57;13.60;;;5.80;;
47153;SDS011;32907;41.412;2.164;2024-03-23T09:43:26;15.18;;;7.47;;
47153;SDS011;32907;41.412;2.164;2024-03-23T09:45:53;14.65;;;7.78;;
47153;SDS011;32907;41.412;2.164;2024-03-23T09:48:20;12.55;;;7.10;;
47153;SDS011;32907;41.412;2.164;2024-03-23T09:50:47;11.27;;;6.47;;
47153;SDS011;32907;41.412;2.164;2024-03-23T09:53:15;11.07;;;5.80;;
47153;SDS011;32907;41.412;2.164;2024-03-23T09:55:44;10.75;;;5.38;;
47153;SDS011;32907;41.412;2.164;2024-03-23T09:58:16;11.70;;;5.65;;
47153;SDS011;32907;41.412;2.164;2024-03-23T10:00:44;12.93;;;5.63;;
47153;SDS011;32907;41.412;2.164;2024-03-23T10:03:12;9.18;;;5.45;;
47153;SDS011;32907;41.412;2.164;2024-03-23T10:05:39;11.35;;;4.95;;
47153;SDS011;32907;41.412;2.164;2024-03-23T10:10:43;9.15;;;4.90;;
47153;SDS011;32907;41.412;2.164;2024-03-23T10:13:11;13.60;;;6.32;;
47153;SDS011;32907;41.412;2.164;2024-03-23T10:15:54;11.43;;;5.93;;
47153;SDS011;32907;41.412;2.164;2024-03-23T10:18:25;13.35;;;7.18;;
47153;SDS011;32907;41.412;2.164;2024-03-23T10:23:36;11.80;;;5.57;;
47153;SDS011;32907;41.412;2.164;2024-03-23T10:26:13;12.35;;;6.20;;
47153;SDS011;32907;41.412;2.164;2024-03-23T10:28:50;13.90;;;6.07;;
47153;SDS011;32907;41.412;2.164;2024-03-23T10:31:18;13.75;;;6.75;;
47153;SDS011;32907;41.412;2.164;2024-03-23T10:33:46;17.17;;;7.03;;
47153;SDS011;32907;41.412;2.164;2024-03-23T10:36:14;14.40;;;6.50;;
47153;SDS011;32907;41.412;2.164;2024-03-23T10:38:43;15.35;;;6.72;;
47153;SDS011;32907;41.412;2.164;2024-03-23T10:41:11;13.38;;;7.75;;
47153;SDS011;32907;41.412;2.164;2024-03-23T10:43:38;17.00;;;11.30;;
47153;SDS011;32907;41.412;2.164;2024-03-23T10:46:06;23.88;;;14.75;;
47153;SDS011;32907;41.412;2.164;2024-03-23T10:48:32;20.63;;;14.73;;
47153;SDS011;32907;41.412;2.164;2024-03-23T10:51:00;26.15;;;13.75;;
47153;SDS011;32907;41.412;2.164;2024-03-23T10:53:28;22.25;;;11.38;;
47153;SDS011;32907;41.412;2.164;2024-03-23T10:55:55;16.70;;;10.23;;
47153;SDS011;32907;41.412;2.164;2024-03-23T10:58:33;18.85;;;8.75;;
47153;SDS011;32907;41.412;2.164;2024-03-23T11:01:06;15.75;;;8.93;;
47153;SDS011;32907;41.412;2.164;2024-03-23T11:03:37;17.52;;;8.40;;
47153;SDS011;32907;41.412;2.164;2024-03-23T11:06:05;15.00;;;7.97;;
47153;SDS011;32907;41.412;2.164;2024-03-23T11:08:33;13.02;;;7.70;;
47153;SDS011;32907;41.412;2.164;2024-03-23T11:11:12;15.02;;;7.40;;
47153;SDS011;32907;41.412;2.164;2024-03-23T11:13:40;13.70;;;6.97;;
47153;SDS011;32907;41.412;2.164;2024-03-23T11:16:41;15.88;;;7.13;;
47153;SDS011;32907;41.412;2.164;2024-03-23T11:22:01;12.32;;;6.80;;
47153;SDS011;32907;41.412;2.164;2024-03-23T11:24:28;12.05;;;6.65;;
47153;SDS011;32907;41.412;2.164;2024-03-23T11:26:55;15.88;;;6.45;;
47153;SDS011;32907;41.412;2.164;2024-03-23T11:29:22;11.45;;;5.47;;
47153;SDS011;32907;41.412;2.164;2024-03-23T11:31:49;15.98;;;6.45;;
47153;SDS011;32907;41.412;2.164;2024-03-23T11:34:21;13.38;;;5.85;;
47153;SDS011;32907;41.412;2.164;2024-03-23T11:36:49;15.20;;;6.45;;
47153;SDS011;32907;41.412;2.164;2024-03-23T11:39:20;14.90;;;6.32;;
47153;SDS011;32907;41.412;2.164;2024-03-23T11:44:21;12.07;;;6.78;;
47153;SDS011;32907;41.412;2.164;2024-03-23T11:46:49;14.93;;;7.38;;
47153;SDS011;32907;41.412;2.164;2024-03-23T11:49:23;13.23;;;7.18;;
47153;SDS011;32907;41.412;2.164;2024-03-23T11:51:52;14.65;;;6.88;;
47153;SDS011;32907;41.412;2.164;2024-03-23T11:54:21;16.65;;;6.90;;
47153;SDS011;32907;41.412;2.164;2024-03-23T11:56:59;10.95;;;5.72;;
47153;SDS011;32907;41.412;2.164;2024-03-23T11:59:37;19.48;;;6.20;;
47153;SDS011;32907;41.412;2.164;2024-03-23T12:02:07;12.77;;;5.25;;
47153;SDS011;32907;41.412;2.164;2024-03-23T12:04:35;10.82;;;5.63;;
47153;SDS011;32907;41.412;2.164;2024-03-23T12:09:40;12.07;;;5.82;;
47153;SDS011;32907;41.412;2.164;2024-03-23T12:12:11;16.10;;;5.53;;
47153;SDS011;32907;41.412;2.164;2024-03-23T12:14:46;13.52;;;5.78;;
47153;SDS011;32907;41.412;2.164;2024-03-23T12:17:29;11.35;;;6.10;;
47153;SDS011;32907;41.412;2.164;2024-03-23T12:19:56;13.68;;;6.45;;
47153;SDS011;32907;41.412;2.164;2024-03-23T12:22:23;13.63;;;6.18;;
47153;SDS011;32907;41.412;2.164;2024-03-23T12:24:51;14.27;;;6.40;;
47153;SDS011;32907;41.412;2.164;2024-03-23T12:27:18;12.98;;;7.00;;
47153;SDS011;32907;41.412;2.164;2024-03-23T12:29:45;14.43;;;6.28;;
47153;SDS011;32907;41.412;2.164;2024-03-23T12:32:13;13.07;;;5.93;;
47153;SDS011;32907;41.412;2.164;2024-03-23T12:34:41;9.88;;;6.05;;
47153;SDS011;32907;41.412;2.164;2024-03-23T12:37:08;12.48;;;5.90;;
47153;SDS011;32907;41.412;2.164;2024-03-23T12:39:39;9.98;;;5.90;;
47153;SDS011;32907;41.412;2.164;2024-03-23T12:42:06;13.27;;;5.72;;
47153;SDS011;32907;41.412;2.164;2024-03-23T12:44:33;11.38;;;5.55;;
47153;SDS011;32907;41.412;2.164;2024-03-23T12:47:00;9.18;;;6.13;;
47153;SDS011;32907;41.412;2.164;2024-03-23T12:49:27;19.13;;;9.00;;
47153;SDS011;32907;41.412;2.164;2024-03-23T12:51:56;36.05;;;15.80;;
47153;SDS011;32907;41.412;2.164;2024-03-23T12:54:23;31.13;;;12.38;;
47153;SDS011;32907;41.412;2.164;2024-03-23T12:56:51;16.83;;;8.00;;
47153;SDS011;32907;41.412;2.164;2024-03-23T12:59:19;13.52;;;7.60;;
47153;SDS011;32907;41.412;2.164;2024-03-23T13:01:46;9.82;;;4.50;;
47153;SDS011;32907;41.412;2.164;2024-03-23T13:04:13;8.85;;;4.40;;
47153;SDS011;32907;41.412;2.164;2024-03-23T13:06:40;9.38;;;4.32;;
47153;SDS011;32907;41.412;2.164;2024-03-23T13:09:08;8.90;;;4.38;;
47153;SDS011;32907;41.412;2.164;2024-03-23T13:11:35;10.88;;;3.78;;
47153;SDS011;32907;41.412;2.164;2024-03-23T13:14:02;9.30;;;3.67;;
47153;SDS011;32907;41.412;2.164;2024-03-23T13:16:30;7.70;;;4.43;;
47153;SDS011;32907;41.412;2.164;2024-03-23T13:18:58;11.77;;;7.05;;
47153;SDS011;32907;41.412;2.164;2024-03-23T13:21:27;15.50;;;8.10;;
47153;SDS011;32907;41.412;2.164;2024-03-23T13:23:54;11.70;;;8.20;;
47153;SDS011;32907;41.412;2.164;2024-03-23T13:26:22;16.05;;;9.88;;
47153;SDS011;32907;41.412;2.164;2024-03-23T13:28:49;16.20;;;9.95;;
47153;SDS011;32907;41.412;2.164;2024-03-23T13:31:16;11.60;;;7.30;;
47153;SDS011;32907;41.412;2.164;2024-03-23T13:33:43;14.27;;;7.25;;
47153;SDS011;32907;41.412;2.164;2024-03-23T13:36:11;14.75;;;7.35;;
47153;SDS011;32907;41.412;2.164;2024-03-23T13:38:37;10.60;;;5.90;;
47153;SDS011;32907;41.412;2.164;2024-03-23T13:41:05;9.40;;;5.47;;
47153;SDS011;32907;41.412;2.164;2024-03-23T13:43:34;11.18;;;5.80;;
47153;SDS011;32907;41.412;2.164;2024-03-23T13:46:01;10.85;;;5.35;;
47153;SDS011;32907;41.412;2.164;2024-03-23T13:48:28;8.57;;;4.72;;
47153;SDS011;32907;41.412;2.164;2024-03-23T13:51:01;12.32;;;4.35;;
47153;SDS011;32907;41.412;2.164;2024-03-23T13:53:30;9.32;;;4.15;;
47153;SDS011;32907;41.412;2.164;2024-03-23T13:55:59;11.40;;;5.05;;
47153;SDS011;32907;41.412;2.164;2024-03-23T13:58:26;9.63;;;5.38;;
47153;SDS011;32907;41.412;2.164;2024-03-23T14:00:55;9.95;;;6.07;;
47153;SDS011;32907;41.412;2.164;2024-03-23T14:03:24;9.65;;;5.22;;
47153;SDS011;32907;41.412;2.164;2024-03-23T14:05:51;10.35;;;5.68;;
47153;SDS011;32907;41.412;2.164;2024-03-23T14:08:19;9.73;;;5.10;;
47153;SDS011;32907;41.412;2.164;2024-03-23T14:10:48;10.98;;;4.80;;
47153;SDS011;32907;41.412;2.164;2024-03-23T14:13:15;10.77;;;4.97;;
47153;SDS011;32907;41.412;2.164;2024-03-23T14:15:42;10.95;;;5.25;;
47153;SDS011;32907;41.412;2.164;2024-03-23T14:18:09;12.63;;;5.82;;
47153;SDS011;32907;41.412;2.164;2024-03-23T14:20:36;11.05;;;5.20;;
47153;SDS011;32907;41.412;2.164;2024-03-23T14:23:03;9.23;;;4.93;;
47153;SDS011;32907;41.412;2.164;2024-03-23T14:25:30;11.63;;;5.45;;
47153;SDS011;32907;41.412;2.164;2024-03-23T14:27:57;12.05;;;5.30;;
47153;SDS011;32907;41.412;2.164;2024-03-23T14:30:24;12.55;;;5.20;;
47153;SDS011;32907;41.412;2.164;2024-03-23T14:32:52;10.77;;;5.43;;
47153;SDS011;32907;41.412;2.164;2024-03-23T14:35:19;11.50;;;4.85;;
47153;SDS011;32907;41.412;2.164;2024-03-23T14:37:46;8.98;;;5.40;;
47153;SDS011;32907;41.412;2.164;2024-03-23T14:40:14;12.20;;;6.60;;
47153;SDS011;32907;41.412;2.164;2024-03-23T14:42:41;10.65;;;6.82;;
47153;SDS011;32907;41.412;2.164;2024-03-23T14:45:08;11.77;;;7.43;;
47153;SDS011;32907;41.412;2.164;2024-03-23T14:47:35;13.80;;;7.47;;
47153;SDS011;32907;41.412;2.164;2024-03-23T14:50:02;14.25;;;7.68;;
47153;SDS011;32907;41.412;2.164;2024-03-23T14:52:29;11.10;;;6.85;;
47153;SDS011;32907;41.412;2.164;2024-03-23T14:54:57;13.43;;;8.18;;
47153;SDS011;32907;41.412;2.164;2024-03-23T14:57:24;14.13;;;8.27;;
47153;SDS011;32907;41.412;2.164;2024-03-23T14:59:51;14.13;;;7.40;;
47153;SDS011;32907;41.412;2.164;2024-03-23T15:02:18;12.13;;;6.95;;
47153;SDS011;32907;41.412;2.164;2024-03-23T15:04:46;12.63;;;9.82;;
47153;SDS011;32907;41.412;2.164;2024-03-23T15:07:12;14.73;;;10.20;;
47153;SDS011;32907;41.412;2.164;2024-03-23T15:09:40;15.48;;;10.15;;
47153;SDS011;32907;41.412;2.164;2024-03-23T15:12:07;15.68;;;10.85;;
47153;SDS011;32907;41.412;2.164;2024-03-23T15:14:34;14.30;;;8.35;;
47153;SDS011;32907;41.412;2.164;2024-03-23T15:17:01;13.98;;;8.02;;
47153;SDS011;32907;41.412;2.164;2024-03-23T15:19:33;19.00;;;12.00;;
47153;SDS011;32907;41.412;2.164;2024-03-23T15:22:00;19.77;;;12.48;;
47153;SDS011;32907;41.412;2.164;2024-03-23T15:24:27;17.05;;;10.80;;
47153;SDS011;32907;41.412;2.164;2024-03-23T15:26:54;9.05;;;7.00;;
47153;SDS011;32907;41.412;2.164;2024-03-23T15:29:22;13.07;;;6.85;;
47153;SDS011;32907;41.412;2.164;2024-03-23T15:31:49;9.40;;;6.22;;
47153;SDS011;32907;41.412;2.164;2024-03-23T15:34:19;10.50;;;7.20;;
47153;SDS011;32907;41.412;2.164;2024-03-23T15:36:49;11.23;;;7.97;;
47153;SDS011;32907;41.412;2.164;2024-03-23T15:39:17;15.18;;;8.40;;
47153;SDS011;32907;41.412;2.164;2024-03-23T15:41:45;12.82;;;7.45;;
47153;SDS011;32907;41.412;2.164;2024-03-23T15:44:14;11.73;;;6.72;;
47153;SDS011;32907;41.412;2.164;2024-03-23T15:46:42;12.88;;;6.10;;
47153;SDS011;32907;41.412;2.164;2024-03-23T15:49:09;10.15;;;5.45;;